Time;durP1;ratioP1;P1;durP2;ratioP2;P2;SDS_P1;SDS_P2;PMS_P1;PMS_P2;Temp;Humidity;BMP_temperature;BMP_pressure;BME280_temperature;BME280_humidity;BME280_pressure;Samples;Min_cycle;Max_cycle;Signal;HPM_P1;HPM_P2
2023/01/25 00:01:50;;;;;;;39.73;20.27;;;;;;;0.40;80.51;103663.09;5032359;28;20464;-75
2023/01/25 00:04:15;;;;;;;39.20;20.20;;;;;;;0.40;80.44;103663.09;5032863;28;20029;-75
2023/01/25 00:06:41;;;;;;;39.83;20.20;;;;;;;0.41;80.35;103657.19;5032867;28;20025;-75
2023/01/25 00:09:06;;;;;;;42.50;21.27;;;;;;;0.38;80.66;103658.69;5032824;28;20036;-75
2023/01/25 00:11:31;;;;;;;42.30;21.07;;;;;;;0.34;80.29;103660.19;5033279;28;20490;-75
2023/01/25 00:13:56;;;;;;;40.17;20.57;;;;;;;0.34;80.19;103657.63;5032116;28;20083;-75
2023/01/25 00:16:23;;;;;;;41.67;21.83;;;;;;;0.35;80.53;103661.91;5033088;28;20026;-75
2023/01/25 00:18:48;;;;;;;44.97;22.60;;;;;;;0.36;80.85;103662.81;5031840;28;20087;-75
2023/01/25 00:21:23;;;;;;;45.37;22.00;;;;;;;0.36;80.04;103657.69;5031032;28;20030;-75
2023/01/25 00:23:49;;;;;;;47.70;22.93;;;;;;;0.34;80.05;103655.06;5031857;28;20032;-75
2023/01/25 00:26:15;;;;;;;45.83;23.77;;;;;;;0.32;80.32;103656.63;5030710;28;20025;-75
2023/01/25 00:28:40;;;;;;;48.43;23.90;;;;;;;0.29;80.38;103653.88;5013841;28;20600;-75
2023/01/25 00:31:07;;;;;;;50.90;24.07;;;;;;;0.27;80.20;103651.19;5031963;28;20506;-75
2023/01/25 00:33:39;;;;;;;49.27;23.67;;;;;;;0.27;80.65;103648.63;5032609;28;20060;-75
2023/01/25 00:36:33;;;;;;;46.90;23.53;;;;;;;0.26;80.37;103651.97;5031328;28;20017;-75
2023/01/25 00:38:59;;;;;;;47.03;22.33;;;;;;;0.26;79.78;103651.13;5030969;28;20380;-75
2023/01/25 00:41:25;;;;;;;47.33;22.27;;;;;;;0.27;80.43;103653.75;5031668;28;20488;-76
2023/01/25 00:43:50;;;;;;;46.80;22.33;;;;;;;0.24;80.47;103639.88;5030884;28;20028;-75
2023/01/25 00:46:17;;;;;;;46.80;21.60;;;;;;;0.25;80.43;103640.00;5028919;28;20037;-76
2023/01/25 00:48:42;;;;;;;44.90;21.50;;;;;;;0.27;81.08;103646.06;5031002;28;20032;-76
2023/01/25 00:51:08;;;;;;;47.23;22.63;;;;;;;0.28;80.69;103636.75;5031840;28;20021;-76
2023/01/25 00:53:33;;;;;;;47.13;22.60;;;;;;;0.28;80.48;103636.75;5031465;28;20056;-75
2023/01/25 00:55:59;;;;;;;46.13;22.27;;;;;;;0.27;80.32;103642.66;5031699;28;20025;-75
2023/01/25 00:58:24;;;;;;;45.30;22.03;;;;;;;0.27;80.65;103642.66;5030630;28;20060;-76
2023/01/25 01:00:52;;;;;;;40.40;19.77;;;;;;;0.26;80.66;103635.75;5013460;28;20022;-75
2023/01/25 01:03:17;;;;;;;46.07;22.00;;;;;;;0.25;80.80;103645.13;5030713;28;20377;-75
2023/01/25 01:05:42;;;;;;;47.67;22.00;;;;;;;0.24;80.70;103634.78;5031458;28;20029;-75
2023/01/25 01:08:08;;;;;;;43.83;21.40;;;;;;;0.22;80.90;103631.22;5030526;28;20491;-75
2023/01/25 01:10:33;;;;;;;50.07;22.83;;;;;;;0.20;80.32;103625.13;5031749;28;20095;-75
2023/01/25 01:12:58;;;;;;;45.47;22.30;;;;;;;0.18;80.49;103626.69;5031088;28;20032;-75
2023/01/25 01:15:24;;;;;;;48.27;22.57;;;;;;;0.13;80.22;103634.09;5031325;28;20013;-75
2023/01/25 01:17:49;;;;;;;47.53;22.77;;;;;;;0.10;80.62;103632.25;5030465;28;20033;-75
2023/01/25 01:20:14;;;;;;;47.37;22.47;;;;;;;0.12;80.45;103635.78;5030183;28;20025;-75
2023/01/25 01:22:40;;;;;;;48.90;22.23;;;;;;;0.14;80.89;103638.44;5030380;28;20379;-75
2023/01/25 01:25:06;;;;;;;48.07;22.53;;;;;;;0.14;80.84;103626.53;5030495;28;20077;-75
2023/01/25 01:27:31;;;;;;;46.93;21.80;;;;;;;0.16;80.56;103638.53;5030616;28;20025;-75
2023/01/25 01:29:56;;;;;;;47.77;22.33;;;;;;;0.16;81.07;103628.31;5030963;28;20021;-75
2023/01/25 01:32:21;;;;;;;48.30;22.20;;;;;;;0.18;80.87;103626.69;5012422;28;20109;-75
2023/01/25 01:34:47;;;;;;;47.30;21.93;;;;;;;0.20;80.86;103630.25;5030531;28;20473;-76
2023/01/25 01:37:12;;;;;;;45.87;21.03;;;;;;;0.21;80.58;103626.88;5031279;28;20116;-75
2023/01/25 01:39:37;;;;;;;46.77;21.77;;;;;;;0.23;81.13;103633.00;5030840;28;20108;-75
2023/01/25 01:42:03;;;;;;;46.03;21.47;;;;;;;0.24;80.30;103629.66;5031056;28;20033;-76
2023/01/25 01:44:49;;;;;;;44.57;20.43;;;;;;;0.25;80.62;103624.66;5030308;28;20022;-75
2023/01/25 01:47:23;;;;;;;50.13;22.00;;;;;;;0.26;80.80;103621.25;4993186;28;1066109;-76
2023/01/25 01:50:01;;;;;;;48.50;22.57;;;;;;;0.27;80.85;103634.97;5031580;28;20546;-75
2023/01/25 01:52:31;;;;;;;49.60;22.70;;;;;;;0.25;80.99;103624.66;5031270;28;20052;-75
2023/01/25 01:55:05;;;;;;;49.20;23.50;;;;;;;0.25;80.89;103623.75;5030302;28;20104;-75
2023/01/25 01:57:47;;;;;;;53.97;24.47;;;;;;;0.27;81.22;103632.41;5031058;28;20021;-75
2023/01/25 02:00:14;;;;;;;;;;;;;;;0.28;80.88;103635.03;5031965;28;20104;-75
2023/01/25 02:02:40;;;;;;;50.67;23.93;;;;;;;0.24;81.10;103624.53;5030700;28;20671;-75
2023/01/25 02:05:10;;;;;;;51.40;23.50;;;;;;;0.21;80.59;103624.31;5030068;28;20113;-75
2023/01/25 02:07:37;;;;;;;50.93;23.50;;;;;;;0.20;80.36;103628.59;5030860;28;20029;-75
2023/01/25 02:10:05;;;;;;;52.07;25.07;;;;;;;0.18;79.86;103631.81;5030643;28;20451;-76
2023/01/25 02:12:30;;;;;;;49.13;21.53;;;;;;;0.19;80.06;103629.38;5031156;28;20083;-75
2023/01/25 02:14:56;;;;;;;48.10;22.50;;;;;;;0.19;80.37;103634.50;5030864;28;20468;-75
2023/01/25 02:17:30;;;;;;;52.93;24.10;;;;;;;0.20;80.83;103625.13;5030755;28;20044;-75
2023/01/25 02:20:08;;;;;;;50.40;23.80;;;;;;;0.20;80.89;103617.44;5031019;28;20114;-75
2023/01/25 02:22:50;;;;;;;52.93;24.00;;;;;;;0.21;81.03;103625.22;5030332;28;20026;-76
2023/01/25 02:25:16;;;;;;;52.25;23.73;;;;;;;0.19;80.60;103623.34;5030409;28;20037;-75
2023/01/25 02:27:57;;;;;;;58.73;26.13;;;;;;;0.18;80.50;103617.34;5031238;28;20029;-76
2023/01/25 02:30:23;;;;;;;57.25;25.52;;;;;;;0.16;79.95;103618.06;5030278;28;20029;-75
2023/01/25 02:32:48;;;;;;;56.80;25.53;;;;;;;0.14;80.43;103613.72;5029981;28;20028;-75
2023/01/25 02:35:21;;;;;;;52.60;24.40;;;;;;;0.13;79.94;103598.25;5030745;28;20017;-75
2023/01/25 02:37:48;;;;;;;56.27;24.93;;;;;;;0.12;80.00;103607.63;5031032;28;20030;-75
2023/01/25 02:40:13;;;;;;;55.73;25.27;;;;;;;0.11;79.86;103593.06;5030203;28;20036;-75
2023/01/25 02:42:41;;;;;;;52.77;24.17;;;;;;;0.11;80.55;103587.94;5031132;28;20029;-75
2023/01/25 02:45:12;;;;;;;48.23;21.53;;;;;;;0.13;80.31;103588.00;5029655;28;20025;-75
2023/01/25 02:47:37;;;;;;;53.13;23.67;;;;;;;0.13;80.75;103596.59;5030440;28;20095;-75
2023/01/25 02:50:02;;;;;;;50.17;22.30;;;;;;;0.13;80.44;103591.47;5026303;28;20037;-75
2023/01/25 02:52:28;;;;;;;50.37;22.17;;;;;;;0.12;80.76;103587.16;5030255;28;20472;-75
2023/01/25 02:54:53;;;;;;;50.70;23.73;;;;;;;0.12;80.82;103584.59;5030499;28;20030;-75
2023/01/25 02:57:18;;;;;;;51.83;23.43;;;;;;;0.11;80.54;103595.63;5030859;28;20363;-75
2023/01/25 02:59:43;;;;;;;51.63;23.43;;;;;;;0.09;81.26;103592.06;5030557;28;20037;-75
2023/01/25 03:02:09;;;;;;;47.83;22.37;;;;;;;0.10;81.06;103588.72;5013210;28;20387;-75
2023/01/25 03:04:34;;;;;;;48.83;22.73;;;;;;;0.10;80.92;103590.38;5030741;28;20045;-75
2023/01/25 03:06:59;;;;;;;49.37;22.50;;;;;;;0.09;80.78;103586.94;5033334;28;20033;-75
2023/01/25 03:09:24;;;;;;;46.83;21.53;;;;;;;0.11;81.17;103592.16;5034433;28;20025;-75
2023/01/25 03:11:50;;;;;;;51.60;22.87;;;;;;;0.10;81.11;103587.81;5016670;28;20025;-75
2023/01/25 03:14:15;;;;;;;52.07;23.87;;;;;;;0.08;80.94;103582.63;5033778;28;20044;-75
2023/01/25 03:16:40;;;;;;;56.37;24.13;;;;;;;0.08;81.10;103574.94;5033830;28;20472;-76
2023/01/25 03:19:05;;;;;;;56.03;24.63;;;;;;;0.09;80.46;103578.38;5034178;28;20025;-75
2023/01/25 03:21:31;;;;;;;52.43;22.93;;;;;;;0.10;80.59;103578.47;5034146;28;20036;-75
2023/01/25 03:24:00;;;;;;;51.70;22.47;;;;;;;0.12;80.85;103576.91;5033883;28;20022;-75
2023/01/25 03:26:26;;;;;;;55.07;24.03;;;;;;;0.10;81.01;103578.47;5033249;28;20038;-75
2023/01/25 03:28:52;;;;;;;57.80;24.90;;;;;;;0.10;80.16;103567.34;5033750;28;20029;-75
2023/01/25 03:31:17;;;;;;;55.07;24.70;;;;;;;0.12;80.39;103565.75;5033482;28;20031;-75
2023/01/25 03:33:43;;;;;;;55.57;24.07;;;;;;;0.10;80.58;103557.09;5033548;28;20037;-75
2023/01/25 03:36:09;;;;;;;58.30;24.37;;;;;;;0.12;80.91;103551.31;5033288;28;20086;-75
2023/01/25 03:38:35;;;;;;;63.00;25.70;;;;;;;0.10;80.68;103555.44;5032565;28;20033;-75
2023/01/25 03:41:01;;;;;;;59.90;25.10;;;;;;;0.05;80.40;103556.81;5033484;28;20032;-75
2023/01/25 03:43:27;;;;;;;61.73;26.67;;;;;;;0.01;80.58;103547.19;5033419;28;20029;-75
2023/01/25 03:45:57;;;;;;;63.43;27.03;;;;;;;-0.01;80.65;103551.34;5033511;28;20049;-75
2023/01/25 03:48:24;;;;;;;63.40;26.27;;;;;;;-0.02;80.20;103541.91;5031690;28;20121;-76
2023/01/25 03:50:57;;;;;;;63.20;26.53;;;;;;;-0.02;80.32;103549.56;5032954;28;20488;-75
2023/01/25 03:53:28;;;;;;;62.87;25.67;;;;;;;-0.02;80.45;103549.56;5031243;28;20036;-75
2023/01/25 03:55:55;;;;;;;65.22;27.10;;;;;;;-0.02;80.70;103547.88;5032403;28;20053;-75
2023/01/25 03:58:20;;;;;;;57.87;25.50;;;;;;;-0.01;80.94;103554.78;5013324;28;20476;-75
2023/01/25 04:00:46;;;;;;;63.90;27.33;;;;;;;-0.02;80.59;103557.25;5032088;28;20025;-75
2023/01/25 04:03:11;;;;;;;58.30;25.27;;;;;;;-0.03;81.16;103556.34;5031860;28;20106;-75
2023/01/25 04:05:36;;;;;;;57.20;24.27;;;;;;;-0.02;81.12;103547.03;5032432;28;20021;-75
2023/01/25 04:08:02;;;;;;;61.30;25.27;;;;;;;-0.01;80.41;103554.78;5031549;28;20025;-75
2023/01/25 04:10:27;;;;;;;59.10;24.97;;;;;;;0.00;80.99;103553.13;5031249;28;20084;-75
2023/01/25 04:12:52;;;;;;;64.23;26.60;;;;;;;-0.01;80.78;103543.66;5032240;28;20039;-75
2023/01/25 04:15:17;;;;;;;61.10;25.27;;;;;;;-0.02;80.50;103542.75;5031880;28;20025;-75
2023/01/25 04:17:43;;;;;;;59.37;25.23;;;;;;;-0.03;80.43;103535.00;5030401;28;20029;-75
2023/01/25 04:20:09;;;;;;;67.77;27.70;;;;;;;-0.06;80.71;103533.13;5031902;28;20488;-75
2023/01/25 04:22:34;;;;;;;64.33;26.90;;;;;;;-0.08;80.38;103531.28;5032106;28;20148;-76
2023/01/25 04:24:59;;;;;;;61.73;26.10;;;;;;;-0.09;80.15;103526.94;5032376;28;20105;-75
2023/01/25 04:27:25;;;;;;;56.90;23.87;;;;;;;-0.10;80.08;103531.19;5032557;28;20033;-75
2023/01/25 04:29:50;;;;;;;60.03;25.97;;;;;;;-0.10;80.46;103532.84;5031083;28;20189;-75
2023/01/25 04:32:15;;;;;;;60.20;24.30;;;;;;;-0.09;80.41;103526.94;5031547;28;20480;-75
2023/01/25 04:34:40;;;;;;;64.47;26.47;;;;;;;-0.09;80.44;103527.84;5031509;28;20026;-75
2023/01/25 04:37:06;;;;;;;60.33;25.10;;;;;;;-0.06;80.57;103529.69;5032219;28;20013;-75
2023/01/25 04:39:31;;;;;;;62.17;26.83;;;;;;;-0.07;80.88;103527.91;5031121;28;20052;-75
2023/01/25 04:41:56;;;;;;;58.93;24.23;;;;;;;-0.07;80.56;103527.91;5032023;28;20029;-75
2023/01/25 04:44:21;;;;;;;61.67;25.97;;;;;;;-0.09;80.56;103527.84;5032717;28;20018;-75
2023/01/25 04:46:48;;;;;;;61.80;26.13;;;;;;;-0.10;79.85;103520.06;5032059;28;20038;-75
2023/01/25 04:49:13;;;;;;;57.73;25.00;;;;;;;-0.11;80.06;103525.97;5031422;28;20472;-75
2023/01/25 04:51:38;;;;;;;61.30;24.97;;;;;;;-0.12;80.69;103513.94;5030374;28;20540;-75
2023/01/25 04:54:04;;;;;;;56.10;23.97;;;;;;;-0.12;80.62;103512.28;5031373;28;20041;-75
2023/01/25 04:56:29;;;;;;;64.20;26.87;;;;;;;-0.11;80.87;103510.59;5031219;28;20318;-75
2023/01/25 04:58:54;;;;;;;62.43;25.27;;;;;;;-0.11;80.91;103515.72;5031820;28;20031;-75
2023/01/25 05:01:20;;;;;;;61.00;26.43;;;;;;;-0.13;80.58;103510.53;5030844;28;20033;-75
2023/01/25 05:03:45;;;;;;;64.80;26.73;;;;;;;-0.13;81.09;103509.63;5031053;28;20029;-75
2023/01/25 05:06:10;;;;;;;65.93;27.17;;;;;;;-0.14;80.34;103502.72;5029127;28;20029;-76
2023/01/25 05:08:35;;;;;;;59.53;25.33;;;;;;;-0.16;80.42;103498.41;5031201;28;20029;-75
2023/01/25 05:11:01;;;;;;;61.93;25.77;;;;;;;-0.14;80.88;103500.16;5031451;28;20037;-75
2023/01/25 05:13:26;;;;;;;63.63;26.53;;;;;;;-0.14;80.57;103500.16;5030593;28;20100;-75
2023/01/25 05:15:51;;;;;;;65.93;26.77;;;;;;;-0.17;80.79;103499.19;5030496;28;20433;-75
2023/01/25 05:18:16;;;;;;;63.33;26.87;;;;;;;-0.17;80.84;103496.63;5030239;28;20022;-76
2023/01/25 05:20:42;;;;;;;64.93;26.37;;;;;;;-0.18;80.76;103505.13;5030810;28;20018;-75
2023/01/25 05:23:07;;;;;;;62.97;25.83;;;;;;;-0.17;80.77;103500.88;5030734;28;20059;-75
2023/01/25 05:28:16;;;;;;;65.50;25.87;;;;;;;-0.12;80.30;103493.47;5030542;28;20040;-75
2023/01/25 05:30:41;;;;;;;65.80;26.33;;;;;;;-0.12;79.71;103493.47;5028806;28;20041;-75
2023/01/25 05:33:06;;;;;;;65.73;26.30;;;;;;;-0.11;80.30;103492.69;5030153;28;20484;-75
2023/01/25 05:35:32;;;;;;;66.67;26.80;;;;;;;-0.13;79.86;103487.50;5029859;28;20018;-75
2023/01/25 05:37:58;;;;;;;67.67;27.07;;;;;;;-0.11;80.28;103492.69;5031393;28;20033;-75
2023/01/25 05:40:24;;;;;;;67.00;25.93;;;;;;;-0.10;80.72;103492.81;5031406;28;20220;-75
2023/01/25 05:42:56;;;;;;;66.63;26.73;;;;;;;-0.10;80.49;103497.03;5031363;28;20060;-76
2023/01/25 05:45:22;;;;;;;64.67;24.10;;;;;;;-0.10;80.64;103487.69;5029261;28;20095;-75
2023/01/25 05:47:57;;;;;;;67.27;26.13;;;;;;;-0.12;80.58;103493.47;5031020;28;20496;-75
2023/01/25 05:50:24;;;;;;;67.40;26.93;;;;;;;-0.14;80.50;103489.94;5031151;28;20025;-75
2023/01/25 05:52:49;;;;;;;64.97;25.20;;;;;;;-0.17;80.68;103488.94;5031018;28;20032;-75
2023/01/25 05:55:15;;;;;;;70.53;27.60;;;;;;;-0.14;80.81;103484.81;5031265;28;20205;-75
2023/01/25 05:57:40;;;;;;;66.40;25.53;;;;;;;-0.14;81.00;103485.72;5031248;28;20047;-75
2023/01/25 06:00:06;;;;;;;69.20;27.50;;;;;;;-0.15;80.98;103494.19;5029309;28;20029;-75
2023/01/25 06:02:32;;;;;;;72.57;27.27;;;;;;;-0.17;80.63;103488.94;5030092;28;20034;-75
2023/01/25 06:04:57;;;;;;;74.63;28.30;;;;;;;-0.14;80.93;103489.94;5029867;28;20033;-75
2023/01/25 06:07:23;;;;;;;72.87;27.27;;;;;;;-0.13;80.92;103486.59;5030572;28;20079;-76
2023/01/25 06:09:48;;;;;;;77.80;29.50;;;;;;;-0.14;81.04;103487.38;5031488;28;20025;-75
2023/01/25 06:12:15;;;;;;;75.77;29.50;;;;;;;-0.16;80.53;103490.72;5030836;28;20515;-75
2023/01/25 06:14:40;;;;;;;73.37;27.60;;;;;;;-0.17;81.24;103490.66;5031092;28;20055;-76
2023/01/25 06:17:06;;;;;;;74.80;28.67;;;;;;;-0.18;81.35;103489.78;5031046;28;20109;-75
2023/01/25 06:19:31;;;;;;;73.17;27.60;;;;;;;-0.18;81.43;103487.22;5030658;28;20431;-75
2023/01/25 06:21:56;;;;;;;73.87;28.07;;;;;;;-0.18;nan;103489.78;5030815;28;20395;-75
2023/01/25 06:24:21;;;;;;;68.53;27.13;;;;;;;-0.17;81.17;103491.50;5030996;28;20033;-75
2023/01/25 06:26:46;;;;;;;71.77;27.00;;;;;;;-0.16;81.34;103488.16;5030461;28;20522;-75
2023/01/25 06:29:12;;;;;;;64.50;25.27;;;;;;;-0.16;81.39;103488.16;5031167;28;20040;-75
2023/01/25 06:31:37;;;;;;;69.83;26.50;;;;;;;-0.17;81.33;103483.84;5030953;28;20033;-75
2023/01/25 06:34:05;;;;;;;78.27;30.03;;;;;;;-0.18;80.67;103482.09;5029472;28;20481;-75
2023/01/25 06:36:31;;;;;;;72.27;27.77;;;;;;;-0.20;80.67;103476.00;5030226;28;20018;-75
2023/01/25 06:38:56;;;;;;;66.50;26.50;;;;;;;-0.18;80.74;103476.09;5030335;28;20520;-76
2023/01/25 06:41:22;;;;;;;72.47;28.03;;;;;;;-0.18;80.48;103476.09;5033637;28;20185;-75
2023/01/25 06:43:51;;;;;;;69.27;27.43;;;;;;;-0.20;80.59;103481.13;5033331;28;20523;-75
2023/01/25 06:46:17;;;;;;;68.17;26.47;;;;;;;-0.18;80.38;103487.22;5034344;28;20045;-75
2023/01/25 06:48:43;;;;;;;68.27;26.40;;;;;;;-0.19;80.56;103485.44;5033369;28;20503;-75
2023/01/25 06:51:11;;;;;;;67.43;26.23;;;;;;;-0.20;80.78;103481.13;5031610;28;20071;-75
2023/01/25 06:53:39;;;;;;;73.47;27.43;;;;;;;-0.20;80.35;103482.78;5015343;28;20090;-75
2023/01/25 06:56:05;;;;;;;67.67;26.33;;;;;;;-0.20;79.72;103485.34;5033068;28;20095;-75
2023/01/25 06:58:31;;;;;;;71.53;27.23;;;;;;;-0.22;79.77;103482.69;5033830;28;20067;-76
2023/01/25 07:01:05;;;;;;;77.97;29.53;;;;;;;-0.27;80.77;103476.41;5031780;28;20136;-75
2023/01/25 07:03:31;;;;;;;72.77;27.47;;;;;;;-0.35;80.55;103477.63;5028028;28;20037;-75
2023/01/25 07:06:02;;;;;;;67.70;27.13;;;;;;;-0.36;80.70;103479.28;5033331;28;20022;-75
2023/01/25 07:08:29;;;;;;;69.63;26.97;;;;;;;-0.35;80.11;103477.63;5032320;28;20033;-75
2023/01/25 07:10:59;;;;;;;66.57;26.30;;;;;;;-0.36;80.90;103473.28;5027663;28;20112;-76
2023/01/25 07:13:25;;;;;;;66.83;25.90;;;;;;;-0.35;80.05;103472.50;5033319;28;20061;-76
2023/01/25 07:15:55;;;;;;;64.37;25.63;;;;;;;-0.35;80.53;103478.47;5032344;28;20057;-75
2023/01/25 07:18:20;;;;;;;61.80;24.40;;;;;;;-0.35;81.03;103477.63;5032700;28;20369;-75
2023/01/25 07:20:45;;;;;;;68.37;25.57;;;;;;;-0.34;80.79;103479.34;5030727;28;20037;-75
2023/01/25 07:23:11;;;;;;;74.27;27.33;;;;;;;-0.33;80.29;103483.69;5033131;28;20057;-75
2023/01/25 07:25:36;;;;;;;69.67;26.23;;;;;;;-0.33;80.10;103481.13;5029440;28;20484;-75
2023/01/25 07:28:01;;;;;;;70.63;27.77;;;;;;;-0.32;79.74;103485.44;5036754;28;20040;-75
2023/01/25 07:30:26;;;;;;;68.87;26.67;;;;;;;-0.30;80.78;103473.66;5033175;28;20054;-75
2023/01/25 07:32:52;;;;;;;66.70;25.77;;;;;;;-0.31;80.12;103475.34;5031807;28;20033;-75
2023/01/25 07:35:17;;;;;;;76.53;28.90;;;;;;;-0.31;79.41;103475.34;5026920;28;20449;-76
2023/01/25 07:37:42;;;;;;;82.77;30.57;;;;;;;-0.42;79.82;103478.00;5030904;28;20045;-75
2023/01/25 07:40:08;;;;;;;73.43;26.43;;;;;;;-0.52;79.42;103464.66;5033129;28;20048;-75
2023/01/25 07:42:33;;;;;;;69.47;26.90;;;;;;;-0.54;80.43;103463.69;5031298;28;20030;-76
2023/01/25 07:44:59;;;;;;;68.90;26.43;;;;;;;-0.53;80.27;103455.22;5032144;28;20025;-76
2023/01/25 07:47:24;;;;;;;66.87;25.03;;;;;;;-0.51;80.41;103462.97;5033604;28;20042;-76
2023/01/25 07:49:49;;;;;;;69.33;25.67;;;;;;;-0.49;80.50;103459.72;5032437;28;20436;-76
2023/01/25 07:52:14;;;;;;;68.97;27.13;;;;;;;-0.47;80.58;103455.56;5032355;28;20184;-75
2023/01/25 07:54:40;;;;;;;68.47;25.87;;;;;;;-0.46;80.31;103464.16;5012339;28;20035;-75
2023/01/25 07:57:05;;;;;;;68.13;26.27;;;;;;;-0.46;79.66;103461.59;5032630;28;20087;-75
2023/01/25 07:59:30;;;;;;;63.90;25.43;;;;;;;-0.46;80.38;103470.13;5032927;28;20095;-76
2023/01/25 08:01:56;;;;;;;63.83;25.20;;;;;;;-0.47;79.79;103473.47;5032633;28;20113;-75
2023/01/25 08:04:21;;;;;;;67.90;24.60;;;;;;;-0.47;79.96;103470.06;5033472;28;20053;-75
2023/01/25 08:06:46;;;;;;;66.87;25.10;;;;;;;-0.49;80.41;103471.63;5033272;28;20487;-75
2023/01/25 08:09:19;;;;;;;64.10;24.67;;;;;;;-0.49;80.60;103466.50;5015216;28;20105;-75
2023/01/25 08:11:44;;;;;;;61.37;24.07;;;;;;;-0.50;80.27;103457.06;5031802;28;20033;-75
2023/01/25 08:14:10;;;;;;;66.87;23.83;;;;;;;-0.48;80.25;103452.94;5033250;28;20107;-75
2023/01/25 08:16:35;;;;;;;65.40;25.07;;;;;;;-0.46;79.64;103456.47;5032210;28;20022;-75
2023/01/25 08:19:02;;;;;;;65.73;25.33;;;;;;;-0.46;80.09;103454.78;5033205;28;20400;-75
2023/01/25 08:21:29;;;;;;;65.00;25.47;;;;;;;-0.45;80.51;103455.69;5014608;28;20067;-74
2023/01/25 08:23:59;;;;;;;74.33;26.67;;;;;;;-0.44;80.68;103460.03;5030640;28;20045;-75
2023/01/25 08:26:25;;;;;;;71.43;26.60;;;;;;;-0.47;80.44;103460.69;5032155;28;20025;-76
2023/01/25 08:28:52;;;;;;;69.40;26.00;;;;;;;-0.46;80.23;103448.81;5029065;28;20021;-75
2023/01/25 08:31:20;;;;;;;65.53;24.87;;;;;;;-0.43;80.97;103443.00;5017551;28;20026;-75
2023/01/25 08:33:47;;;;;;;68.97;26.07;;;;;;;-0.44;80.13;103444.69;5031825;28;20025;-75
2023/01/25 08:36:17;;;;;;;68.53;26.13;;;;;;;-0.43;80.33;103445.53;5031767;28;20017;-75
2023/01/25 08:38:43;;;;;;;71.87;27.10;;;;;;;-0.44;80.95;103438.66;5031828;28;20025;-76
2023/01/25 08:41:11;;;;;;;66.43;25.43;;;;;;;-0.43;80.58;103446.44;5031441;28;20529;-75
2023/01/25 08:43:37;;;;;;;72.80;26.77;;;;;;;-0.44;80.35;103442.13;5032083;28;20331;-75
2023/01/25 08:46:03;;;;;;;74.07;28.37;;;;;;;-0.44;79.94;103443.78;5031294;28;20057;-75
2023/01/25 08:48:28;;;;;;;67.77;25.83;;;;;;;-0.46;80.95;103447.13;5032403;28;20053;-75
2023/01/25 08:50:54;;;;;;;68.50;27.20;;;;;;;-0.46;80.88;103451.38;5032248;28;20032;-75
2023/01/25 08:53:19;;;;;;;64.47;25.10;;;;;;;-0.44;80.71;103447.25;5032361;28;20075;-75
2023/01/25 08:55:44;;;;;;;68.63;24.97;;;;;;;-0.40;80.05;103445.75;5029111;28;20025;-75
2023/01/25 08:58:14;;;;;;;67.30;26.00;;;;;;;-0.38;79.82;103439.91;5028191;28;20029;-74
2023/01/25 09:00:41;;;;;;;67.53;25.40;;;;;;;-0.37;80.17;103438.25;5027868;28;20100;-76
2023/01/25 09:03:07;;;;;;;65.00;24.57;;;;;;;-0.36;79.22;103433.22;5027468;28;20036;-75
2023/01/25 09:05:33;;;;;;;73.73;27.43;;;;;;;-0.37;80.53;103430.59;5026955;28;20018;-75
2023/01/25 09:07:59;;;;;;;63.53;25.27;;;;;;;-0.43;79.89;103425.09;5029517;28;20040;-75
2023/01/25 09:10:24;;;;;;;68.37;25.63;;;;;;;-0.50;79.50;103419.59;5030640;28;20037;-75
2023/01/25 09:12:49;;;;;;;64.23;24.83;;;;;;;-0.50;79.47;103427.25;5028941;28;20026;-75
2023/01/25 09:15:15;;;;;;;68.47;26.03;;;;;;;-0.47;80.23;103418.91;5030122;28;20487;-75
2023/01/25 09:17:40;;;;;;;63.50;23.70;;;;;;;-0.45;80.53;103422.44;5028856;28;20033;-75
2023/01/25 09:20:06;;;;;;;61.20;23.67;;;;;;;-0.44;80.33;103424.22;5027839;28;20021;-75
2023/01/25 09:22:31;;;;;;;67.97;27.13;;;;;;;-0.43;80.08;103419.97;5029164;28;20025;-75
2023/01/25 09:24:57;;;;;;;63.80;24.77;;;;;;;-0.43;80.02;103419.97;5028459;28;20307;-75
2023/01/25 09:27:22;;;;;;;64.33;24.60;;;;;;;-0.43;79.94;103419.97;5027348;28;20039;-75
2023/01/25 09:29:47;;;;;;;63.47;24.57;;;;;;;-0.42;80.06;103419.19;5028735;28;20036;-75
2023/01/25 09:32:13;;;;;;;62.27;22.83;;;;;;;-0.40;79.78;103415.91;5030015;28;20488;-75
2023/01/25 09:34:38;;;;;;;63.80;23.53;;;;;;;-0.39;80.26;103416.81;5026993;28;20055;-75
2023/01/25 09:37:03;;;;;;;70.87;26.10;;;;;;;-0.37;80.36;103417.81;5029835;28;20025;-75
2023/01/25 09:39:28;;;;;;;64.57;24.03;;;;;;;-0.35;79.74;103416.22;5028180;28;20029;-74
2023/01/25 09:42:17;;;;;;;66.27;24.73;;;;;;;-0.33;79.38;103415.50;5030401;28;20041;-75
2023/01/25 09:44:46;;;;;;;63.20;23.97;;;;;;;-0.31;79.51;103425.81;5026509;28;20068;-74
2023/01/25 09:47:23;;;;;;;68.73;24.80;;;;;;;-0.27;79.42;103420.13;5028722;28;20037;-75
2023/01/25 09:50:24;;;;;;;67.90;25.07;;;;;;;-0.25;79.91;103405.75;5030183;28;20112;-75
2023/01/25 09:52:49;;;;;;;66.50;24.80;;;;;;;-0.25;79.03;103405.75;5027748;28;20037;-75
2023/01/25 09:55:17;;;;;;;70.80;25.43;;;;;;;-0.26;80.02;103406.53;5028380;28;20033;-75
2023/01/25 09:57:45;;;;;;;73.00;26.03;;;;;;;-0.27;79.36;103411.56;5028756;28;20033;-75
2023/01/25 10:00:13;;;;;;;65.80;24.37;;;;;;;-0.25;79.44;103412.53;5029512;28;20076;-75
2023/01/25 10:03:17;;;;;;;69.53;25.50;;;;;;;-0.21;79.53;103412.81;5028827;28;20055;-75
2023/01/25 10:05:48;;;;;;;66.07;24.60;;;;;;;-0.22;79.63;103412.72;5027317;28;20079;-75
2023/01/25 10:08:24;;;;;;;63.90;24.10;;;;;;;-0.21;79.31;103407.72;5027360;28;20480;-75
2023/01/25 10:10:57;;;;;;;62.83;22.53;;;;;;;-0.21;79.95;103405.16;5029360;28;20116;-75
2023/01/25 10:13:23;;;;;;;68.53;25.57;;;;;;;-0.20;79.40;103399.25;5026565;28;20029;-75
2023/01/25 10:16:02;;;;;;;66.77;25.13;;;;;;;-0.19;79.51;103401.00;5031014;28;20107;-75
2023/01/25 10:18:53;;;;;;;75.57;26.50;;;;;;;-0.21;78.60;103400.03;5031411;28;20036;-75
2023/01/25 10:21:34;;;;;;;68.20;25.47;;;;;;;-0.28;78.80;103389.34;5029962;28;20499;-75
2023/01/25 10:24:25;;;;;;;71.57;24.83;;;;;;;-0.31;79.01;103396.03;5029389;28;20459;-75
2023/01/25 10:27:01;;;;;;;71.83;25.90;;;;;;;-0.30;79.96;103389.22;5029092;28;20472;-75
2023/01/25 10:29:31;;;;;;;63.67;23.93;;;;;;;-0.28;80.08;103387.66;5030490;28;20037;-75
2023/01/25 10:32:11;;;;;;;65.73;23.93;;;;;;;-0.26;79.30;103393.75;5029940;28;20040;-75
2023/01/25 10:34:42;;;;;;;62.83;23.27;;;;;;;-0.23;79.26;103386.25;5030039;28;20108;-75
2023/01/25 10:37:18;;;;;;;67.93;24.27;;;;;;;-0.20;79.48;103378.78;5030741;28;20377;-75
2023/01/25 10:40:03;;;;;;;63.60;23.53;;;;;;;-0.17;79.75;103371.25;5027584;28;20112;-75
2023/01/25 10:42:36;;;;;;;68.20;25.13;;;;;;;-0.16;79.70;103365.34;5028550;28;20044;-75
2023/01/25 10:45:09;;;;;;;67.37;24.33;;;;;;;-0.16;79.59;103355.13;5028568;28;20031;-75
2023/01/25 10:47:36;;;;;;;59.93;22.80;;;;;;;-0.14;79.38;103351.78;5030739;28;20400;-76
2023/01/25 10:50:02;;;;;;;64.13;23.57;;;;;;;-0.11;79.37;103346.84;5032491;28;20026;-75
2023/01/25 10:52:33;;;;;;;66.07;25.50;;;;;;;-0.07;79.83;103342.00;5030759;28;20376;-75
2023/01/25 10:55:11;;;;;;;67.50;25.63;;;;;;;-0.08;79.08;103337.66;5014233;28;20072;-75
2023/01/25 10:57:40;;;;;;;70.53;24.93;;;;;;;-0.06;79.55;103330.09;5029168;28;20099;-75
2023/01/25 11:00:09;;;;;;;64.43;24.17;;;;;;;-0.03;79.10;103325.16;5032865;28;20100;-75
2023/01/25 11:02:35;;;;;;;64.73;24.00;;;;;;;-0.02;78.57;103315.00;5011258;28;20205;-75
2023/01/25 11:05:35;;;;;;;66.83;24.63;;;;;;;0.00;78.98;103304.88;5029590;28;20063;-75
2023/01/25 11:08:23;;;;;;;63.27;22.80;;;;;;;0.01;79.22;103298.94;5032191;28;20021;-75
2023/01/25 11:10:49;;;;;;;62.47;23.27;;;;;;;-0.02;79.01;103301.34;5032776;28;20132;-75
2023/01/25 11:13:14;;;;;;;68.17;24.73;;;;;;;-0.02;79.20;103297.09;5027994;28;20112;-76
2023/01/25 11:15:43;;;;;;;64.00;24.17;;;;;;;0.01;79.17;103287.81;5029907;28;20108;-76
2023/01/25 11:18:18;;;;;;;69.40;25.13;;;;;;;0.02;78.71;103290.47;5033908;28;20059;-76